createdAt,value
2022-08-03T00:00:34.619Z,27.85
2022-08-03T00:02:36.381Z,27.54
2022-08-03T00:04:38.119Z,27.27
2022-08-03T00:06:40.499Z,27.74
2022-08-03T00:08:42.265Z,27.38
2022-08-03T00:10:44.068Z,27.69
2022-08-03T00:12:45.802Z,27.55
2022-08-03T00:14:47.439Z,27.69
2022-08-03T00:16:49.695Z,27.88
2022-08-03T00:18:51.647Z,27.41
2022-08-03T00:20:53.482Z,27.70
2022-08-03T00:22:55.198Z,27.38
2022-08-03T00:24:56.828Z,27.03
2022-08-03T00:26:58.937Z,27.00
2022-08-03T00:29:00.709Z,26.83
2022-08-03T00:31:02.390Z,26.71
2022-08-03T00:33:05.407Z,27.12
2022-08-03T00:35:14.773Z,26.97
2022-08-03T00:37:41.430Z,26.53
2022-08-03T00:39:45.954Z,27.04
2022-08-03T00:41:47.624Z,26.97
2022-08-03T00:43:49.285Z,27.30
2022-08-03T00:45:51.078Z,26.33
2022-08-03T00:47:52.963Z,26.79
2022-08-03T00:49:54.744Z,25.67
2022-08-03T00:51:56.531Z,26.39
2022-08-03T00:53:58.435Z,26.62
2022-08-03T00:56:00.146Z,26.36
2022-08-03T00:58:06.609Z,26.51
2022-08-03T01:00:10.502Z,27.12
2022-08-03T01:02:12.189Z,26.60
2022-08-03T01:04:13.925Z,27.13
2022-08-03T01:06:18.763Z,26.46
2022-08-03T01:08:43.498Z,26.90
2022-08-03T01:11:23.827Z,27.56
2022-08-03T01:14:01.103Z,27.51
2022-08-03T01:16:08.626Z,27.42
2022-08-03T01:18:17.421Z,26.97
2022-08-03T01:20:22.395Z,26.87
2022-08-03T01:22:51.567Z,27.21
2022-08-03T01:25:31.411Z,27.41
2022-08-03T01:27:54.365Z,27.35
2022-08-03T01:30:10.247Z,26.88
2022-08-03T01:33:03.142Z,27.07
2022-08-03T01:34:53.123Z,26.49
2022-08-03T01:36:57.644Z,26.62
2022-08-03T01:39:02.506Z,26.56
2022-08-03T01:41:18.918Z,26.37
2022-08-03T01:44:26.702Z,26.19
2022-08-03T01:45:48.308Z,25.97
2022-08-03T01:47:50.704Z,25.74
2022-08-03T01:49:54.495Z,26.05
2022-08-03T01:52:05.029Z,26.13
2022-08-03T01:54:10.211Z,25.70
2022-08-03T01:56:14.120Z,25.30
2022-08-03T01:58:18.822Z,25.65
2022-08-03T02:00:20.626Z,25.72
2022-08-03T02:02:33.870Z,25.76
2022-08-03T02:04:39.241Z,26.03
2022-08-03T02:07:01.728Z,25.58
2022-08-03T02:09:06.666Z,26.15
2022-08-03T02:11:08.758Z,25.64
2022-08-03T02:13:11.316Z,25.97
2022-08-03T02:15:16.093Z,26.07
2022-08-03T02:17:39.449Z,26.11
2022-08-03T02:19:43.182Z,25.72
2022-08-03T02:21:57.250Z,26.06
2022-08-03T02:24:04.848Z,26.14
2022-08-03T02:26:12.676Z,26.25
2022-08-03T02:28:19.684Z,26.29
2022-08-03T02:30:22.008Z,26.35
2022-08-03T02:32:34.518Z,26.22
2022-08-03T02:34:37.321Z,26.15
2022-08-03T02:36:41.017Z,25.88
2022-08-03T02:38:44.423Z,25.79
2022-08-03T02:40:46.502Z,25.23
2022-08-03T02:42:51.563Z,25.21
2022-08-03T02:44:55.432Z,25.10
2022-08-03T02:47:02.348Z,25.44
2022-08-03T02:49:49.785Z,25.67
2022-08-03T02:51:30.056Z,24.94
2022-08-03T02:53:33.259Z,25.19
2022-08-03T02:55:35.977Z,25.30
2022-08-03T02:57:46.681Z,25.43
2022-08-03T02:59:49.646Z,25.89
2022-08-03T03:01:54.053Z,25.80
2022-08-03T03:03:57.652Z,26.35
2022-08-03T03:05:59.948Z,26.31
2022-08-03T03:08:02.600Z,25.27
2022-08-03T03:10:05.240Z,25.98
2022-08-03T03:12:09.978Z,25.53
2022-08-03T03:14:13.554Z,25.13
2022-08-03T03:16:16.260Z,24.45
2022-08-03T03:18:22.255Z,24.56
2022-08-03T03:20:29.317Z,25.09
2022-08-03T03:22:34.389Z,25.12
2022-08-03T03:24:37.663Z,25.16
2022-08-03T03:26:42.449Z,24.77
2022-08-03T03:28:44.733Z,24.67
2022-08-03T03:30:52.679Z,24.75
2022-08-03T03:32:55.525Z,24.66
2022-08-03T03:34:59.317Z,25.01
2022-08-03T03:37:01.678Z,25.36
2022-08-03T03:39:15.389Z,25.38
2022-08-03T03:41:18.072Z,25.09
2022-08-03T03:43:24.261Z,25.54
2022-08-03T03:45:27.506Z,25.26
2022-08-03T03:47:32.708Z,24.89
2022-08-03T03:49:34.971Z,24.82
2022-08-03T03:51:36.785Z,24.49
2022-08-03T03:53:38.638Z,24.95
2022-08-03T03:56:01.643Z,25.33
2022-08-03T03:58:04.243Z,25.72
2022-08-03T04:00:07.070Z,25.38
2022-08-03T04:02:10.571Z,24.95
2022-08-03T04:04:30.968Z,25.07
2022-08-03T04:06:51.433Z,25.48
2022-08-03T04:09:11.664Z,25.50
2022-08-03T04:11:30.132Z,25.58
2022-08-03T04:13:37.993Z,25.37
2022-08-03T04:15:41.493Z,25.36
2022-08-03T04:17:44.542Z,25.37
2022-08-03T04:19:51.435Z,25.26
2022-08-03T04:21:57.301Z,25.01
2022-08-03T04:24:03.625Z,25.07
2022-08-03T04:26:09.998Z,25.57
2022-08-03T04:28:30.343Z,25.15
2022-08-03T04:30:37.800Z,25.30
2022-08-03T04:32:45.499Z,25.01
2022-08-03T04:34:47.779Z,24.97
2022-08-03T04:36:53.215Z,24.62
2022-08-03T04:39:10.825Z,25.10
2022-08-03T04:41:13.555Z,24.73
2022-08-03T04:43:18.540Z,24.64
2022-08-03T04:45:21.361Z,24.79
2022-08-03T04:47:23.239Z,24.03
2022-08-03T04:49:25.653Z,23.86
2022-08-03T04:51:27.982Z,24.18
2022-08-03T04:53:29.777Z,25.02
2022-08-03T04:55:33.203Z,25.17
2022-08-03T04:57:34.980Z,25.34
2022-08-03T04:59:39.084Z,25.07
2022-08-03T05:01:42.672Z,24.92
2022-08-03T05:03:44.393Z,25.08
2022-08-03T05:05:50.006Z,25.13
2022-08-03T05:07:53.093Z,25.11
2022-08-03T05:10:01.651Z,25.16
2022-08-03T05:12:06.453Z,24.86
2022-08-03T05:14:08.136Z,24.93
2022-08-03T05:16:09.904Z,25.04
2022-08-03T05:18:14.194Z,25.21
2022-08-03T05:20:18.114Z,25.42
2022-08-03T05:22:21.506Z,25.23
2022-08-03T05:24:23.397Z,25.36
2022-08-03T05:26:25.285Z,25.14
2022-08-03T05:28:28.452Z,25.30
2022-08-03T05:30:33.422Z,25.19
2022-08-03T05:32:35.962Z,25.32
2022-08-03T05:34:37.769Z,25.28
2022-08-03T05:36:39.739Z,25.62
2022-08-03T05:38:41.445Z,25.64
2022-08-03T05:40:56.840Z,25.74
2022-08-03T05:42:59.925Z,25.82
2022-08-03T05:45:13.297Z,25.85
2022-08-03T05:47:15.079Z,25.29
2022-08-03T05:49:16.831Z,25.31
2022-08-03T05:51:18.612Z,25.26
2022-08-03T05:53:20.288Z,25.16
2022-08-03T05:55:21.912Z,25.59
2022-08-03T05:57:23.665Z,25.87
2022-08-03T05:59:38.121Z,25.63
2022-08-03T06:01:40.367Z,26.00
2022-08-03T06:03:42.347Z,25.64
2022-08-03T06:05:55.565Z,25.98
2022-08-03T06:08:03.616Z,25.89
2022-08-03T06:10:36.814Z,25.95
2022-08-03T06:12:28.042Z,25.60
2022-08-03T06:14:29.749Z,25.87
2022-08-03T06:16:31.617Z,25.54
2022-08-03T06:18:33.381Z,25.70
2022-08-03T06:20:35.085Z,25.63
2022-08-03T06:22:36.982Z,25.98
2022-08-03T06:24:53.779Z,25.89
2022-08-03T06:26:56.704Z,26.18
2022-08-03T06:28:58.433Z,26.38
2022-08-03T06:31:01.461Z,25.85
2022-08-03T06:33:03.112Z,26.05
2022-08-03T06:35:08.645Z,25.55
2022-08-03T06:37:10.309Z,26.05
2022-08-03T06:39:13.154Z,26.11
2022-08-03T06:41:14.944Z,26.42
2022-08-03T06:43:16.587Z,26.87
2022-08-03T06:45:18.277Z,26.50
2022-08-03T06:47:19.944Z,26.08
2022-08-03T06:49:21.715Z,26.33
2022-08-03T06:52:04.060Z,26.20
2022-08-03T06:53:45.373Z,26.50
2022-08-03T06:55:51.145Z,26.08
2022-08-03T06:58:00.113Z,26.33
2022-08-03T07:00:11.881Z,25.89
2022-08-03T07:02:19.093Z,26.38
2022-08-03T07:04:21.269Z,25.63
2022-08-03T07:06:22.969Z,26.82
2022-08-03T07:08:34.263Z,26.48
2022-08-03T07:10:36.698Z,26.65
2022-08-03T07:12:55.597Z,26.90
2022-08-03T07:15:01.832Z,26.42
2022-08-03T07:17:04.617Z,27.50
2022-08-03T07:19:13.569Z,26.50
2022-08-03T07:21:16.803Z,26.30
2022-08-03T07:23:19.058Z,27.47
2022-08-03T07:25:21.419Z,27.16
2022-08-03T07:27:23.219Z,27.37
2022-08-03T07:29:25.129Z,27.38
2022-08-03T07:31:27.209Z,27.20
2022-08-03T07:33:35.806Z,26.86
2022-08-03T07:35:37.544Z,27.85
2022-08-03T07:37:39.233Z,27.70
2022-08-03T07:39:40.888Z,27.79
2022-08-03T07:41:42.513Z,27.66
2022-08-03T07:43:44.198Z,27.53
2022-08-03T07:45:45.878Z,26.90
2022-08-03T07:47:53.245Z,27.28
2022-08-03T07:49:56.169Z,26.77
2022-08-03T07:52:16.616Z,27.23
2022-08-03T07:54:18.533Z,27.99
2022-08-03T07:56:20.278Z,28.22
2022-08-03T07:58:24.316Z,28.58
2022-08-03T08:00:26.080Z,27.41
2022-08-03T08:02:27.761Z,28.03
2022-08-03T08:04:29.393Z,28.07
2022-08-03T08:06:32.771Z,27.75
2022-08-03T08:08:34.474Z,27.84
2022-08-03T08:10:36.669Z,28.10
2022-08-03T08:12:39.376Z,26.38
2022-08-03T08:14:41.971Z,27.95
2022-08-03T08:16:43.638Z,27.36
2022-08-03T08:18:45.288Z,27.99
2022-08-03T08:20:46.993Z,28.21
2022-08-03T08:22:48.866Z,28.91
2022-08-03T08:24:52.001Z,28.81
2022-08-03T08:26:54.136Z,29.35
2022-08-03T08:28:55.769Z,28.62
2022-08-03T08:30:57.401Z,28.88
2022-08-03T08:32:59.378Z,29.36
2022-08-03T08:35:01.067Z,29.56
2022-08-03T08:37:02.805Z,29.01
2022-08-03T08:39:04.532Z,29.18
2022-08-03T08:41:06.278Z,29.15
2022-08-03T08:43:07.934Z,29.69
2022-08-03T08:45:11.990Z,29.19
2022-08-03T08:47:14.665Z,29.68
2022-08-03T08:49:18.773Z,29.76
2022-08-03T08:51:22.223Z,29.33
2022-08-03T08:53:29.229Z,29.08
2022-08-03T08:55:59.399Z,28.90
2022-08-03T08:58:02.005Z,29.40
2022-08-03T09:00:10.556Z,30.02
2022-08-03T09:02:12.258Z,29.72
2022-08-03T09:04:14.177Z,30.22
2022-08-03T09:06:16.553Z,30.51
2022-08-03T09:08:18.518Z,30.62
2022-08-03T09:10:22.012Z,30.43
2022-08-03T09:12:42.273Z,30.36
2022-08-03T09:14:55.141Z,31.01
2022-08-03T09:17:05.166Z,31.05
2022-08-03T09:19:14.270Z,30.85
2022-08-03T09:21:35.111Z,30.65
2022-08-03T09:24:05.412Z,31.27
2022-08-03T09:26:09.135Z,30.99
2022-08-03T09:28:52.705Z,30.99
2022-08-03T09:30:57.597Z,31.27
2022-08-03T09:33:05.063Z,31.19
2022-08-03T09:35:09.348Z,31.47
2022-08-03T09:37:16.420Z,30.70
2022-08-03T09:39:41.180Z,30.98
2022-08-03T09:41:46.547Z,31.31
2022-08-03T09:43:48.285Z,31.74
2022-08-03T09:45:50.290Z,31.96
2022-08-03T09:47:52.070Z,31.66
2022-08-03T09:50:02.308Z,32.21
2022-08-03T09:52:38.765Z,32.07
2022-08-03T09:54:41.736Z,31.75
2022-08-03T09:56:47.066Z,31.83
2022-08-03T09:58:48.873Z,31.86
2022-08-03T10:01:01.919Z,32.56
2022-08-03T10:03:05.901Z,31.93
2022-08-03T10:05:09.557Z,32.44
2022-08-03T10:07:11.595Z,32.25
2022-08-03T10:09:15.636Z,32.74
2022-08-03T10:11:31.093Z,32.45
2022-08-03T10:13:33.042Z,32.55
2022-08-03T10:16:23.785Z,32.40
2022-08-03T10:17:56.460Z,32.99
2022-08-03T10:20:00.187Z,32.99
2022-08-03T10:22:07.667Z,33.27
2022-08-03T10:24:10.890Z,32.12
2022-08-03T10:26:19.254Z,32.70
2022-08-03T10:28:22.182Z,32.86
2022-08-03T10:30:27.878Z,33.04
2022-08-03T10:32:35.976Z,33.34
2022-08-03T10:34:44.407Z,33.25
2022-08-03T10:36:47.679Z,32.75
2022-08-03T10:38:53.290Z,32.42
2022-08-03T10:40:59.051Z,33.24
2022-08-03T10:43:10.136Z,33.32
2022-08-03T10:45:25.507Z,33.50
2022-08-03T10:47:27.685Z,33.29
2022-08-03T10:49:33.727Z,32.96
2022-08-03T10:51:37.135Z,33.71
2022-08-03T10:53:47.694Z,33.59
2022-08-03T10:56:14.405Z,33.50
2022-08-03T10:58:57.159Z,34.04
2022-08-03T11:03:23.515Z,33.30
2022-08-03T11:05:27.556Z,33.20
2022-08-03T11:07:29.194Z,33.66
2022-08-03T11:09:42.421Z,33.59
2022-08-03T11:11:45.979Z,33.75
2022-08-03T11:14:05.855Z,34.04
2022-08-03T11:16:22.277Z,34.17
2022-08-03T11:18:27.063Z,33.33
2022-08-03T11:20:50.570Z,33.70
2022-08-03T11:22:54.622Z,33.87
2022-08-03T11:24:57.385Z,33.95
2022-08-03T11:27:14.400Z,33.33
2022-08-03T11:29:28.115Z,34.23
2022-08-03T11:31:49.415Z,33.76
2022-08-03T11:34:12.502Z,34.23
2022-08-03T11:36:32.279Z,33.53
2022-08-03T11:38:34.238Z,34.11
2022-08-03T11:40:46.260Z,34.43
2022-08-03T11:42:48.380Z,33.74
2022-08-03T11:45:00.533Z,34.12
2022-08-03T11:47:02.214Z,33.61
2022-08-03T11:49:10.471Z,33.85
2022-08-03T11:51:26.934Z,33.81
2022-08-03T11:53:28.805Z,33.95
2022-08-03T11:55:32.135Z,34.35
2022-08-03T11:59:00.775Z,34.12
2022-08-03T11:59:57.301Z,33.84
2022-08-03T12:02:14.721Z,34.21
2022-08-03T12:04:16.532Z,34.34
2022-08-03T12:06:19.175Z,34.52
2022-08-03T12:08:26.926Z,34.52
2022-08-03T12:10:29.295Z,33.98
2022-08-03T12:12:31.079Z,34.23
2022-08-03T12:14:50.076Z,34.52
2022-08-03T12:16:53.683Z,34.86
2022-08-03T12:19:01.497Z,34.66
2022-08-03T12:21:08.890Z,34.94
2022-08-03T12:23:11.593Z,34.66
2022-08-03T12:25:38.562Z,34.53
2022-08-03T12:27:41.447Z,33.93
2022-08-03T12:29:43.132Z,34.76
2022-08-03T12:31:58.866Z,34.58
2022-08-03T12:34:06.710Z,34.76
2022-08-03T12:36:10.279Z,34.78
2022-08-03T12:38:13.042Z,34.99
2022-08-03T12:40:20.578Z,34.97
2022-08-03T12:42:31.354Z,35.09
2022-08-03T12:44:35.825Z,35.05
2022-08-03T12:46:42.707Z,35.40
2022-08-03T12:49:20.013Z,35.28
2022-08-03T12:51:21.804Z,35.59
2022-08-03T12:53:30.116Z,35.94
2022-08-03T12:55:57.786Z,35.57
2022-08-03T12:57:56.851Z,35.68
2022-08-03T13:00:21.564Z,35.68
2022-08-03T13:02:31.020Z,35.87
2022-08-03T13:04:36.010Z,35.48
2022-08-03T13:06:37.720Z,35.73
2022-08-03T13:08:39.435Z,35.75
2022-08-03T13:10:41.090Z,35.82
2022-08-03T13:12:50.255Z,35.84
2022-08-03T13:15:01.091Z,35.95
2022-08-03T13:17:03.055Z,35.96
2022-08-03T13:19:04.729Z,35.67
2022-08-03T13:21:08.370Z,35.53
2022-08-03T13:23:13.903Z,35.57
2022-08-03T13:25:24.184Z,36.02
2022-08-03T13:28:04.655Z,35.66
2022-08-03T13:29:47.952Z,35.79
2022-08-03T13:31:50.516Z,35.76
2022-08-03T13:33:53.006Z,35.83
2022-08-03T13:35:55.276Z,35.79
2022-08-03T13:37:57.005Z,35.21
2022-08-03T13:40:02.778Z,35.46
2022-08-03T13:42:05.475Z,36.20
2022-08-03T13:44:28.214Z,35.69
2022-08-03T13:46:28.858Z,35.94
2022-08-03T13:48:35.958Z,35.87
2022-08-03T13:50:42.927Z,35.71
2022-08-03T13:52:46.397Z,36.00
2022-08-03T13:54:48.126Z,36.63
2022-08-03T13:56:52.994Z,36.34
2022-08-03T13:58:55.391Z,36.08
2022-08-03T14:00:57.075Z,35.92
2022-08-03T14:03:06.498Z,35.83
2022-08-03T14:05:11.345Z,35.99
2022-08-03T14:07:14.812Z,36.24
2022-08-03T14:09:16.491Z,36.37
2022-08-03T14:11:19.007Z,36.79
2022-08-03T14:13:20.731Z,36.69
2022-08-03T14:15:22.662Z,36.55
2022-08-03T14:17:24.318Z,36.92
2022-08-03T14:19:26.342Z,36.66
2022-08-03T14:21:28.881Z,35.41
2022-08-03T14:23:30.635Z,35.13
2022-08-03T14:25:44.199Z,35.93
2022-08-03T14:27:53.119Z,36.57
2022-08-03T14:29:56.677Z,35.17
2022-08-03T14:32:11.269Z,36.48
2022-08-03T14:34:14.464Z,36.26
2022-08-03T14:36:16.982Z,36.50
2022-08-03T14:38:19.346Z,36.88
2022-08-03T14:40:21.517Z,36.69
2022-08-03T14:42:23.763Z,36.74
2022-08-03T14:44:25.453Z,36.78
2022-08-03T14:46:27.132Z,36.44
2022-08-03T14:50:29.597Z,37.03
2022-08-03T14:50:51.760Z,36.59
2022-08-03T14:52:53.639Z,36.99
2022-08-03T14:54:55.367Z,36.75
2022-08-03T14:56:57.738Z,36.74
2022-08-03T14:59:00.249Z,36.41
2022-08-03T15:01:02.073Z,36.89
2022-08-03T15:03:05.091Z,37.13
2022-08-03T15:05:07.543Z,37.30
2022-08-03T15:07:09.278Z,36.52
2022-08-03T15:09:23.521Z,36.95
2022-08-03T15:11:25.721Z,36.83
2022-08-03T15:13:27.838Z,37.44
2022-08-03T15:15:29.578Z,37.43
2022-08-03T15:17:31.229Z,37.08
2022-08-03T15:20:00.724Z,37.11
2022-08-03T15:21:56.227Z,37.03
2022-08-03T15:23:57.893Z,37.23
2022-08-03T15:26:27.969Z,37.74
2022-08-03T15:28:21.212Z,37.45
2022-08-03T15:30:22.856Z,37.75
2022-08-03T15:32:24.489Z,37.52
2022-08-03T15:34:26.173Z,37.71
2022-08-03T15:36:27.815Z,37.33
2022-08-03T15:38:29.529Z,37.54
2022-08-03T15:40:31.204Z,37.22
2022-08-03T15:42:33.997Z,37.12
2022-08-03T15:44:35.621Z,36.90
2022-08-03T15:46:37.399Z,37.34
2022-08-03T15:48:40.067Z,36.52
2022-08-03T15:50:41.770Z,35.77
2022-08-03T15:52:45.495Z,35.12
2022-08-03T15:54:47.161Z,37.01
2022-08-03T15:56:48.819Z,36.81
2022-08-03T15:59:03.834Z,36.43
2022-08-03T16:01:16.394Z,35.94
2022-08-03T16:03:21.685Z,36.60
2022-08-03T16:05:23.358Z,36.50
2022-08-03T16:08:02.961Z,35.54
2022-08-03T16:10:05.496Z,36.44
2022-08-03T16:12:15.371Z,37.32
2022-08-03T16:14:32.576Z,36.86
2022-08-03T16:16:40.510Z,35.09
2022-08-03T16:18:42.750Z,35.33
2022-08-03T16:20:45.278Z,36.77
2022-08-03T16:22:48.580Z,37.12
2022-08-03T16:24:50.534Z,36.04
2022-08-03T16:26:52.159Z,35.56
2022-08-03T16:28:53.871Z,35.45
2022-08-03T16:30:55.550Z,34.48
2022-08-03T16:32:57.193Z,35.64
2022-08-03T16:34:59.158Z,34.83
2022-08-03T16:37:16.511Z,34.85
2022-08-03T16:39:22.686Z,35.75
2022-08-03T16:41:24.385Z,36.40
2022-08-03T16:43:26.123Z,36.62
2022-08-03T16:45:27.815Z,36.77
2022-08-03T16:47:29.491Z,37.37
2022-08-03T16:49:55.126Z,36.86
2022-08-03T16:51:53.178Z,36.78
2022-08-03T16:54:07.916Z,36.98
2022-08-03T16:56:14.027Z,37.43
2022-08-03T16:58:17.971Z,37.35
2022-08-03T17:00:33.939Z,37.53
2022-08-03T17:02:37.056Z,37.60
2022-08-03T17:04:40.362Z,37.68
2022-08-03T17:06:45.012Z,37.49
2022-08-03T17:08:55.485Z,37.39
2022-08-03T17:10:57.339Z,37.62
2022-08-03T17:12:59.176Z,37.07
2022-08-03T17:15:01.412Z,37.71
2022-08-03T17:17:08.619Z,37.68
2022-08-03T17:19:18.336Z,37.14
2022-08-03T17:21:29.410Z,37.47
2022-08-03T17:23:52.397Z,37.35
2022-08-03T17:26:02.110Z,37.84
2022-08-03T17:28:48.358Z,37.22
2022-08-03T17:30:48.171Z,37.25
2022-08-03T17:32:56.676Z,37.66
2022-08-03T17:34:59.119Z,37.95
2022-08-03T17:37:04.439Z,37.49
2022-08-03T17:39:06.793Z,36.83
2022-08-03T17:41:11.026Z,37.29
2022-08-03T17:45:52.423Z,37.52
2022-08-03T17:47:57.523Z,37.19
2022-08-03T17:49:59.685Z,37.24
2022-08-03T17:52:28.678Z,37.04
2022-08-03T17:55:56.822Z,37.30
2022-08-03T17:58:01.573Z,36.98
2022-08-03T18:00:27.701Z,36.25
2022-08-03T18:03:10.059Z,36.30
2022-08-03T18:05:16.277Z,36.40
2022-08-03T18:07:22.347Z,36.56
2022-08-03T18:10:04.987Z,36.36
2022-08-03T18:11:58.088Z,36.17
2022-08-03T18:16:37.703Z,35.88
2022-08-03T18:18:44.843Z,35.79
2022-08-03T18:20:51.366Z,35.74
2022-08-03T18:22:54.928Z,36.04
2022-08-03T18:24:59.093Z,36.05
2022-08-03T18:27:03.200Z,36.32
2022-08-03T18:29:05.043Z,36.56
2022-08-03T18:34:16.483Z,36.17
2022-08-03T18:36:02.956Z,35.99
2022-08-03T18:38:04.622Z,36.20
2022-08-03T18:40:12.877Z,36.30
2022-08-03T18:42:26.693Z,36.13
2022-08-03T18:47:18.639Z,36.27
2022-08-03T18:49:34.599Z,36.49
2022-08-03T18:51:43.370Z,36.33
2022-08-03T18:54:06.351Z,36.44
2022-08-03T18:56:19.064Z,36.15
2022-08-03T18:58:48.335Z,36.34
2022-08-03T19:02:00.545Z,36.37
2022-08-03T19:04:04.124Z,36.40
2022-08-03T19:06:15.902Z,36.07
2022-08-03T19:08:48.838Z,36.16
2022-08-03T19:10:57.888Z,36.26
2022-08-03T19:13:19.331Z,36.45
2022-08-03T19:15:41.286Z,36.35
2022-08-03T19:17:52.763Z,36.16
2022-08-03T19:19:57.387Z,35.84
2022-08-03T19:21:59.771Z,35.64
2022-08-03T19:24:09.500Z,35.50
2022-08-03T19:26:30.149Z,35.57
2022-08-03T19:28:34.522Z,35.60
2022-08-03T19:30:38.775Z,35.88
2022-08-03T19:32:41.668Z,35.44
2022-08-03T19:34:51.378Z,35.85
2022-08-03T19:36:54.690Z,35.64
2022-08-03T19:38:57.218Z,35.56
2022-08-03T19:41:03.643Z,35.65
2022-08-03T19:43:52.960Z,35.58
2022-08-03T19:46:05.958Z,35.28
2022-08-03T19:48:13.405Z,34.53
2022-08-03T19:50:15.966Z,34.76
2022-08-03T19:52:20.919Z,34.61
2022-08-03T19:54:32.173Z,34.42
2022-08-03T19:56:34.791Z,34.34
2022-08-03T19:58:37.359Z,33.91
2022-08-03T20:00:41.010Z,34.92
2022-08-03T20:02:51.160Z,35.11
2022-08-03T20:04:53.195Z,34.74
2022-08-03T20:06:58.467Z,34.62
2022-08-03T20:09:00.577Z,34.39
2022-08-03T20:11:02.622Z,34.64
2022-08-03T20:13:08.101Z,35.08
2022-08-03T20:15:10.697Z,34.86
2022-08-03T20:17:12.413Z,34.52
2022-08-03T20:19:22.773Z,34.59
2022-08-03T20:21:27.343Z,34.32
2022-08-03T20:23:37.483Z,34.29
2022-08-03T20:25:48.731Z,34.31
2022-08-03T20:28:13.857Z,34.43
2022-08-03T20:30:16.251Z,34.32
2022-08-03T20:32:24.805Z,34.33
2022-08-03T20:34:26.622Z,34.37
2022-08-03T20:36:28.993Z,34.65
2022-08-03T20:38:32.131Z,34.74
2022-08-03T20:40:33.857Z,34.42
2022-08-03T20:42:35.671Z,34.60
2022-08-03T20:44:37.449Z,34.47
2022-08-03T20:46:56.376Z,35.01
2022-08-03T20:49:03.897Z,35.01
2022-08-03T20:51:50.471Z,35.25
2022-08-03T20:54:00.308Z,34.78
2022-08-03T20:56:03.614Z,34.42
2022-08-03T20:58:05.323Z,34.77
2022-08-03T21:00:12.123Z,35.06
2022-08-03T21:02:13.972Z,34.70
2022-08-03T21:04:21.709Z,34.73
2022-08-03T21:06:27.766Z,34.71
2022-08-03T21:08:29.999Z,34.54
2022-08-03T21:10:33.347Z,34.43
2022-08-03T21:12:50.255Z,34.66
2022-08-03T21:12:54.882Z,37.13
2022-08-03T21:12:57.247Z,36.12
2022-08-03T21:12:58.149Z,36.26
2022-08-03T21:12:59.142Z,36.22
2022-08-03T21:15:06.975Z,34.04
2022-08-03T21:17:19.333Z,34.11
2022-08-03T21:19:34.316Z,33.73
2022-08-03T21:21:38.684Z,33.14
2022-08-03T21:23:49.063Z,32.78
2022-08-03T21:25:51.936Z,32.93
2022-08-03T21:27:54.970Z,32.88
2022-08-03T21:29:58.525Z,33.03
2022-08-03T21:32:01.473Z,33.07
2022-08-03T21:34:05.457Z,32.90
2022-08-03T21:36:07.469Z,33.52
2022-08-03T21:38:29.948Z,33.46
2022-08-03T21:40:32.114Z,33.36
2022-08-03T21:42:33.946Z,33.46
2022-08-03T21:44:35.636Z,33.47
2022-08-03T21:46:39.920Z,33.45
2022-08-03T21:48:41.922Z,33.30
2022-08-03T21:50:44.588Z,33.19
2022-08-03T21:52:48.210Z,33.16
2022-08-03T21:54:54.164Z,32.95
2022-08-03T21:57:03.074Z,33.23
2022-08-03T21:59:07.903Z,32.79
2022-08-03T22:01:10.925Z,33.04
2022-08-03T22:03:17.127Z,33.06
2022-08-03T22:05:20.049Z,32.72
2022-08-03T22:07:31.483Z,32.73
2022-08-03T22:09:35.320Z,32.75
2022-08-03T22:11:38.601Z,32.55
2022-08-03T22:13:43.590Z,32.27
2022-08-03T22:15:48.696Z,32.30
2022-08-03T22:17:55.621Z,32.11
2022-08-03T22:19:58.782Z,31.83
2022-08-03T22:22:04.617Z,32.15
2022-08-03T22:24:07.368Z,32.27
2022-08-03T22:26:14.169Z,31.84
2022-08-03T22:28:15.918Z,32.51
2022-08-03T22:30:19.269Z,32.55
2022-08-03T22:32:21.050Z,32.21
2022-08-03T22:34:26.685Z,31.90
2022-08-03T22:36:30.162Z,31.08
2022-08-03T22:38:33.094Z,31.73
2022-08-03T22:40:36.379Z,32.13
2022-08-03T22:42:40.304Z,32.03
2022-08-03T22:44:42.001Z,31.78
2022-08-03T22:46:44.721Z,31.81
2022-08-03T22:48:47.311Z,31.86
2022-08-03T22:50:49.360Z,30.87
2022-08-03T22:52:53.611Z,31.12
2022-08-03T22:54:56.373Z,31.53
2022-08-03T22:56:58.409Z,31.84
2022-08-03T22:59:00.037Z,31.92
2022-08-03T23:01:09.854Z,30.95
2022-08-03T23:03:12.167Z,31.33
2022-08-03T23:06:02.636Z,31.49
2022-08-03T23:07:45.784Z,30.92
2022-08-03T23:09:48.574Z,30.79
2022-08-03T23:11:53.213Z,31.47
2022-08-03T23:13:59.399Z,30.67
2022-08-03T23:16:04.537Z,31.22
2022-08-03T23:18:07.409Z,31.55
2022-08-03T23:20:09.634Z,31.75
2022-08-03T23:22:29.475Z,31.60
2022-08-03T23:24:36.295Z,31.39
2022-08-03T23:26:38.425Z,31.30
2022-08-03T23:28:42.262Z,30.97
2022-08-03T23:30:49.892Z,30.71
2022-08-03T23:32:54.731Z,29.74
2022-08-03T23:35:18.482Z,30.52
2022-08-03T23:37:20.741Z,30.77
2022-08-03T23:39:22.821Z,31.25
2022-08-03T23:41:24.727Z,31.48
2022-08-03T23:43:50.829Z,31.55
2022-08-03T23:45:49.686Z,31.41
2022-08-03T23:47:51.364Z,31.20
2022-08-03T23:49:53.655Z,30.68
2022-08-03T23:52:21.977Z,31.54
2022-08-03T23:54:58.461Z,31.30
2022-08-03T23:57:15.347Z,31.11
2022-08-03T23:59:48.712Z,31.49
